createdAt,value
2019-03-02T00:01:32.919Z,12.67
2019-03-02T00:04:38.210Z,15.33
2019-03-02T00:07:43.915Z,12.33
2019-03-02T00:10:50.577Z,15.27
2019-03-02T00:13:55.853Z,13.33
2019-03-02T00:17:01.142Z,19.67
2019-03-02T00:20:06.562Z,13.00
2019-03-02T00:23:11.929Z,14.43
2019-03-02T00:26:17.278Z,17.00
2019-03-02T00:29:22.555Z,15.43
2019-03-02T00:32:27.953Z,13.60
2019-03-02T00:35:33.191Z,16.43
2019-03-02T00:38:40.644Z,19.13
2019-03-02T00:41:45.606Z,15.30
2019-03-02T00:45:03.205Z,19.63
2019-03-02T00:48:11.040Z,15.33
2019-03-02T00:51:15.561Z,12.97
2019-03-02T00:54:20.878Z,16.67
2019-03-02T00:57:26.184Z,19.63
2019-03-02T01:00:31.828Z,13.10
2019-03-02T01:03:37.049Z,14.07
2019-03-02T01:06:45.060Z,14.87
2019-03-02T01:09:49.349Z,11.93
2019-03-02T01:12:54.863Z,18.90
2019-03-02T01:16:00.121Z,12.90
2019-03-02T01:19:09.164Z,14.30
2019-03-02T01:22:16.561Z,12.00
2019-03-02T01:25:21.462Z,18.53
2019-03-02T01:28:26.744Z,15.37
2019-03-02T01:31:32.006Z,9.03
2019-03-02T01:34:38.732Z,10.80
2019-03-02T01:37:45.520Z,13.87
2019-03-02T01:40:50.857Z,11.53
2019-03-02T01:43:56.167Z,9.93
2019-03-02T01:47:01.529Z,11.93
2019-03-02T01:50:08.603Z,9.50
2019-03-02T01:53:15.236Z,13.73
2019-03-02T01:56:20.995Z,7.40
2019-03-02T01:59:26.473Z,7.23
2019-03-02T02:02:35.844Z,12.63
2019-03-02T02:05:39.744Z,8.03
2019-03-02T02:08:45.471Z,5.23
2019-03-02T02:11:53.390Z,7.03
2019-03-02T02:14:57.755Z,7.90
2019-03-02T02:18:03.011Z,7.77
2019-03-02T02:21:09.348Z,6.33
2019-03-02T02:24:14.642Z,7.27
2019-03-02T02:27:22.490Z,12.10
2019-03-02T02:30:27.527Z,10.07
2019-03-02T02:33:33.037Z,6.03
2019-03-02T02:36:38.358Z,7.03
2019-03-02T02:39:45.100Z,7.20
2019-03-02T02:42:50.390Z,9.13
2019-03-02T02:45:55.762Z,7.83
2019-03-02T02:49:05.381Z,9.40
2019-03-02T02:52:07.997Z,6.97
2019-03-02T02:55:13.475Z,8.60
2019-03-02T02:58:20.081Z,5.57
2019-03-02T03:01:32.963Z,6.50
2019-03-02T03:04:36.292Z,11.30
2019-03-02T03:07:39.342Z,7.00
2019-03-02T03:10:44.651Z,8.03
2019-03-02T03:13:49.920Z,10.60
2019-03-02T03:16:55.644Z,8.40
2019-03-02T03:20:10.296Z,6.47
2019-03-02T03:23:09.460Z,6.63
2019-03-02T03:26:14.708Z,6.83
2019-03-02T03:29:20.058Z,7.00
2019-03-02T03:32:25.398Z,8.13
2019-03-02T03:35:31.714Z,8.97
2019-03-02T03:38:37.081Z,8.67
2019-03-02T03:41:43.449Z,10.47
2019-03-02T03:44:49.544Z,10.00
2019-03-02T03:47:54.835Z,11.50
2019-03-02T03:51:00.144Z,7.20
2019-03-02T03:54:06.943Z,9.70
2019-03-02T03:57:16.967Z,10.90
2019-03-02T04:00:20.626Z,11.50
2019-03-02T04:03:25.872Z,13.87
2019-03-02T04:06:32.572Z,11.30
2019-03-02T04:09:37.922Z,9.20
2019-03-02T04:12:43.142Z,10.00
2019-03-02T04:15:48.459Z,15.20
2019-03-02T04:18:57.808Z,13.30
2019-03-02T04:22:06.253Z,9.23
2019-03-02T04:25:12.934Z,8.50
2019-03-02T04:28:17.087Z,15.63
2019-03-02T04:31:22.347Z,7.77
2019-03-02T04:34:27.630Z,12.50
2019-03-02T04:37:32.881Z,12.83
2019-03-02T04:40:38.167Z,7.17
2019-03-02T04:43:43.550Z,8.37
2019-03-02T04:46:51.355Z,7.50
2019-03-02T04:49:57.514Z,5.30
2019-03-02T04:53:02.842Z,10.90
2019-03-02T04:56:08.206Z,5.80
2019-03-02T04:59:18.659Z,6.67
2019-03-02T05:02:24.045Z,7.27
2019-03-02T05:05:29.286Z,7.93
2019-03-02T05:08:37.581Z,7.00
2019-03-02T05:11:41.522Z,11.00
2019-03-02T05:14:46.865Z,9.33
2019-03-02T05:17:52.140Z,7.10
2019-03-02T05:20:57.542Z,8.10
2019-03-02T05:24:08.881Z,8.63
2019-03-02T05:27:11.036Z,7.50
2019-03-02T05:30:16.355Z,8.17
2019-03-02T05:33:24.262Z,7.83
2019-03-02T05:36:28.633Z,9.63
2019-03-02T05:39:33.898Z,13.60
2019-03-02T05:42:39.127Z,11.10
2019-03-02T05:45:44.455Z,9.67
2019-03-02T05:48:49.820Z,9.43
2019-03-02T05:51:55.131Z,9.30
2019-03-02T05:55:00.482Z,7.93
2019-03-02T05:58:05.787Z,9.90
2019-03-02T06:01:11.133Z,10.33
2019-03-02T06:04:18.848Z,13.20
2019-03-02T06:07:23.678Z,10.40
2019-03-02T06:10:29.107Z,10.50
2019-03-02T06:13:36.435Z,11.90
2019-03-02T06:16:41.405Z,16.20
2019-03-02T06:19:46.673Z,13.07
2019-03-02T06:22:52.357Z,15.40
2019-03-02T06:25:59.019Z,15.83
2019-03-02T06:29:05.282Z,17.70
2019-03-02T06:32:10.571Z,23.00
2019-03-02T06:35:15.844Z,18.67
2019-03-02T06:38:21.203Z,17.90
2019-03-02T06:41:26.498Z,23.27
2019-03-02T06:44:34.125Z,24.43
2019-03-02T06:47:38.786Z,30.43
2019-03-02T06:50:44.080Z,23.37
2019-03-02T06:53:49.395Z,24.23
2019-03-02T06:56:57.813Z,33.30
2019-03-02T07:00:04.641Z,27.10
2019-03-02T07:03:10.160Z,35.90
2019-03-02T07:06:16.342Z,30.87
2019-03-02T07:09:21.695Z,31.27
2019-03-02T07:12:27.023Z,32.07
2019-03-02T07:15:32.346Z,29.73
2019-03-02T07:18:56.617Z,33.07
2019-03-02T07:22:01.932Z,35.47
2019-03-02T07:25:07.282Z,30.60
2019-03-02T07:28:12.575Z,31.93
2019-03-02T07:31:17.838Z,33.77
2019-03-02T07:34:23.233Z,41.80
2019-03-02T07:37:28.512Z,33.03
2019-03-02T07:40:33.838Z,36.00
2019-03-02T07:43:42.261Z,32.13
2019-03-02T07:46:47.945Z,32.57
2019-03-02T07:49:53.166Z,41.57
2019-03-02T07:52:58.538Z,31.37
2019-03-02T07:56:03.842Z,37.07
2019-03-02T07:59:09.220Z,39.10
2019-03-02T08:02:14.566Z,34.83
2019-03-02T08:05:21.027Z,38.10
2019-03-02T08:08:26.269Z,36.97
2019-03-02T08:11:31.566Z,33.47
2019-03-02T08:14:36.833Z,34.60
2019-03-02T08:17:42.078Z,34.50
2019-03-02T08:20:49.779Z,31.30
2019-03-02T08:23:55.027Z,32.53
2019-03-02T08:27:00.329Z,35.13
2019-03-02T08:30:07.126Z,29.47
2019-03-02T08:33:12.624Z,28.07
2019-03-02T08:36:18.273Z,29.10
2019-03-02T08:39:23.725Z,24.93
2019-03-02T08:42:29.032Z,26.87
2019-03-02T08:45:34.384Z,28.03
2019-03-02T08:48:39.691Z,27.80
2019-03-02T08:51:46.562Z,30.80
2019-03-02T08:54:53.536Z,29.30
2019-03-02T08:58:00.340Z,28.20
2019-03-02T09:01:06.504Z,27.10
2019-03-02T09:04:13.997Z,24.93
2019-03-02T09:07:18.776Z,25.43
2019-03-02T09:10:24.079Z,24.83
2019-03-02T09:13:30.911Z,24.57
2019-03-02T09:16:38.611Z,25.57
2019-03-02T09:19:43.505Z,22.07
2019-03-02T09:22:48.761Z,22.77
2019-03-02T09:25:54.141Z,22.20
2019-03-02T09:29:04.489Z,23.37
2019-03-02T09:32:06.522Z,19.40
2019-03-02T09:35:12.908Z,20.00
2019-03-02T09:38:20.968Z,24.90
2019-03-02T09:41:26.346Z,20.33
2019-03-02T09:44:32.816Z,18.77
2019-03-02T09:47:38.764Z,22.17
2019-03-02T09:50:44.056Z,23.30
2019-03-02T09:53:49.329Z,21.70
2019-03-02T09:56:54.622Z,24.10
2019-03-02T09:59:59.910Z,27.97
2019-03-02T10:03:05.213Z,30.70
2019-03-02T10:06:10.490Z,27.70
2019-03-02T10:09:15.746Z,27.00
2019-03-02T10:12:20.990Z,29.70
2019-03-02T10:15:26.322Z,32.70
2019-03-02T10:18:31.565Z,33.10
2019-03-02T10:21:47.400Z,29.67
2019-03-02T10:24:56.600Z,25.53
2019-03-02T10:28:01.909Z,29.43
2019-03-02T10:31:07.291Z,32.10
2019-03-02T10:34:12.636Z,30.30
2019-03-02T10:37:17.896Z,31.40
2019-03-02T10:40:23.531Z,32.73
2019-03-02T10:43:28.889Z,33.57
2019-03-02T10:46:34.151Z,40.53
2019-03-02T10:49:39.449Z,39.47
2019-03-02T10:52:45.876Z,48.03
2019-03-02T10:55:54.051Z,41.30
2019-03-02T10:58:59.291Z,37.77
2019-03-02T11:02:04.582Z,35.70
2019-03-02T11:05:25.906Z,34.57
2019-03-02T11:08:40.030Z,39.43
2019-03-02T11:12:13.556Z,38.37
2019-03-02T11:15:43.530Z,36.17
2019-03-02T11:18:59.655Z,38.27
2019-03-02T11:22:15.156Z,36.37
2019-03-02T11:25:40.939Z,32.47
2019-03-02T11:28:56.899Z,35.73
2019-03-02T11:32:20.421Z,32.80
2019-03-02T11:35:50.810Z,34.00
2019-03-02T11:39:07.708Z,35.93
2019-03-02T11:42:29.339Z,36.10
2019-03-02T11:45:52.459Z,30.50
2019-03-02T11:49:29.726Z,30.37
2019-03-02T11:52:47.667Z,34.00
2019-03-02T11:56:10.694Z,34.83
2019-03-02T11:59:53.508Z,29.40
2019-03-02T12:03:13.423Z,29.80
2019-03-02T12:06:43.235Z,31.47
2019-03-02T12:10:05.188Z,30.03
2019-03-02T12:13:34.765Z,31.70
2019-03-02T12:17:00.232Z,32.60
2019-03-02T12:20:23.735Z,34.37
2019-03-02T12:23:48.474Z,33.80
2019-03-02T12:27:11.053Z,37.83
2019-03-02T12:30:35.293Z,35.43
2019-03-02T12:33:54.116Z,36.97
2019-03-02T12:37:20.445Z,47.33
2019-03-02T12:40:43.471Z,46.30
2019-03-02T12:44:08.427Z,51.97
2019-03-02T12:47:51.304Z,54.70
2019-03-02T12:51:08.625Z,56.40
2019-03-02T12:54:39.191Z,56.70
2019-03-02T12:57:59.509Z,53.47
2019-03-02T13:01:21.300Z,59.37
2019-03-02T13:04:51.592Z,49.37
2019-03-02T13:08:28.215Z,51.57
2019-03-02T13:11:51.153Z,49.47
2019-03-02T13:15:09.390Z,57.50
2019-03-02T13:18:33.155Z,62.63
2019-03-02T13:21:51.756Z,49.43
2019-03-02T13:25:16.595Z,50.03
2019-03-02T13:28:37.098Z,50.50
2019-03-02T13:31:50.113Z,45.93
2019-03-02T13:35:12.933Z,46.97
2019-03-02T13:38:30.063Z,48.07
2019-03-02T13:41:56.515Z,44.60
2019-03-02T13:45:09.748Z,44.47
2019-03-02T13:48:52.274Z,46.50
2019-03-02T13:52:22.438Z,38.87
2019-03-02T13:56:04.776Z,40.67
2019-03-02T13:59:27.188Z,43.20
2019-03-02T14:03:10.706Z,41.40
2019-03-02T14:06:43.865Z,41.50
2019-03-02T14:09:57.740Z,42.57
2019-03-02T14:13:30.466Z,43.37
2019-03-02T14:16:55.406Z,41.40
2019-03-02T14:20:20.665Z,43.70
2019-03-02T14:23:54.868Z,43.10
2019-03-02T14:27:17.899Z,41.87
2019-03-02T14:30:32.214Z,40.67
2019-03-02T14:33:56.475Z,40.27
2019-03-02T14:37:19.294Z,39.80
2019-03-02T14:40:47.084Z,39.23
2019-03-02T14:44:11.384Z,40.10
2019-03-02T14:47:40.735Z,36.07
2019-03-02T14:51:20.726Z,39.60
2019-03-02T14:54:53.169Z,38.40
2019-03-02T14:58:21.672Z,44.30
2019-03-02T15:01:45.834Z,34.87
2019-03-02T15:05:20.308Z,38.80
2019-03-02T15:08:44.046Z,35.03
2019-03-02T15:12:12.586Z,38.00
2019-03-02T15:15:27.401Z,36.57
2019-03-02T15:19:02.363Z,33.50
2019-03-02T15:22:29.652Z,45.93
2019-03-02T15:25:52.770Z,34.30
2019-03-02T15:29:23.048Z,35.57
2019-03-02T15:32:53.284Z,35.77
2019-03-02T15:36:34.274Z,41.03
2019-03-02T15:40:01.119Z,38.90
2019-03-02T15:43:17.872Z,40.13
2019-03-02T15:46:32.220Z,37.43
2019-03-02T15:49:55.874Z,40.00
2019-03-02T15:53:20.247Z,36.57
2019-03-02T15:56:49.999Z,35.87
2019-03-02T16:00:18.129Z,41.13
2019-03-02T16:03:41.152Z,39.50
2019-03-02T16:07:08.314Z,32.63
2019-03-02T16:10:43.657Z,35.00
2019-03-02T16:14:09.952Z,37.83
2019-03-02T16:17:41.294Z,41.30
2019-03-02T16:20:58.272Z,38.70
2019-03-02T16:24:25.311Z,43.77
2019-03-02T16:27:49.471Z,35.70
2019-03-02T16:31:12.592Z,37.77
2019-03-02T16:34:36.914Z,37.37
2019-03-02T16:37:53.935Z,35.23
2019-03-02T16:41:16.995Z,35.90
2019-03-02T16:44:39.267Z,36.57
2019-03-02T16:48:19.204Z,34.77
2019-03-02T16:51:52.720Z,36.90
2019-03-02T16:55:15.878Z,37.17
2019-03-02T16:58:43.289Z,37.30
2019-03-02T17:02:10.678Z,38.37
2019-03-02T17:05:38.063Z,38.80
2019-03-02T17:09:00.801Z,40.23
2019-03-02T17:12:20.251Z,41.47
2019-03-02T17:15:50.587Z,37.27
2019-03-02T17:19:14.544Z,32.40
2019-03-02T17:22:41.853Z,36.50
2019-03-02T17:25:56.318Z,37.57
2019-03-02T17:29:12.121Z,40.50
2019-03-02T17:32:46.987Z,34.80
2019-03-02T17:36:20.507Z,38.80
2019-03-02T17:39:56.938Z,42.73
2019-03-02T17:43:32.188Z,34.63
2019-03-02T17:47:00.759Z,39.43
2019-03-02T17:50:24.099Z,37.83
2019-03-02T17:53:43.811Z,41.47
2019-03-02T17:57:13.918Z,40.63
2019-03-02T18:00:57.017Z,44.17
2019-03-02T18:04:35.402Z,42.77
2019-03-02T18:08:12.234Z,38.93
2019-03-02T18:11:35.923Z,36.17
2019-03-02T18:15:00.249Z,36.27
2019-03-02T18:18:05.736Z,33.90
2019-03-02T18:21:11.181Z,37.33
2019-03-02T18:24:16.525Z,40.90
2019-03-02T18:27:21.821Z,34.00
2019-03-02T18:30:27.078Z,45.43
2019-03-02T18:33:51.290Z,37.60
2019-03-02T18:36:56.688Z,41.13
2019-03-02T18:40:03.049Z,37.00
2019-03-02T18:43:09.572Z,44.13
2019-03-02T18:46:16.581Z,40.20
2019-03-02T18:49:40.068Z,41.33
2019-03-02T18:53:02.610Z,41.40
2019-03-02T18:56:08.116Z,88.00
2019-03-02T18:59:13.517Z,43.20
2019-03-02T19:02:18.859Z,32.10
2019-03-02T19:05:31.890Z,37.23
2019-03-02T19:08:37.118Z,33.77
2019-03-02T19:11:42.437Z,36.90
2019-03-02T19:14:47.744Z,46.03
2019-03-02T19:17:53.109Z,35.77
2019-03-02T19:20:58.394Z,36.70
2019-03-02T19:24:03.718Z,37.30
2019-03-02T19:27:09.042Z,38.17
2019-03-02T19:30:16.071Z,48.90
2019-03-02T19:33:21.515Z,38.57
2019-03-02T19:36:26.794Z,35.63
2019-03-02T19:39:32.214Z,40.63
2019-03-02T19:42:37.483Z,42.20
2019-03-02T19:45:42.838Z,41.27
2019-03-02T19:48:49.733Z,45.53
2019-03-02T19:51:56.588Z,46.57
2019-03-02T19:55:06.401Z,39.63
2019-03-02T19:58:11.817Z,40.23
2019-03-02T20:01:17.174Z,40.30
2019-03-02T20:04:22.508Z,44.53
2019-03-02T20:07:27.962Z,43.60
2019-03-02T20:10:33.378Z,40.20
2019-03-02T20:13:57.682Z,44.30
2019-03-02T20:17:03.283Z,40.97
2019-03-02T20:20:10.567Z,43.93
2019-03-02T20:23:15.874Z,44.00
2019-03-02T20:26:21.133Z,48.03
2019-03-02T20:29:26.446Z,38.77
2019-03-02T20:32:32.952Z,53.83
2019-03-02T20:35:39.889Z,42.30
2019-03-02T20:38:45.266Z,47.40
2019-03-02T20:41:50.575Z,45.20
2019-03-02T20:44:55.883Z,49.30
2019-03-02T20:48:01.219Z,41.00
2019-03-02T20:51:08.552Z,41.67
2019-03-02T20:54:13.818Z,42.53
2019-03-02T20:57:19.123Z,40.53
2019-03-02T21:00:26.239Z,45.27
2019-03-02T21:03:31.620Z,35.07
2019-03-02T21:06:36.953Z,35.13
2019-03-02T21:09:42.197Z,33.17
2019-03-02T21:12:48.486Z,31.40
2019-03-02T21:15:53.766Z,31.63
2019-03-02T21:19:02.653Z,28.70
2019-03-02T21:22:09.084Z,30.37
2019-03-02T21:25:14.822Z,31.57
2019-03-02T21:28:21.582Z,24.30
2019-03-02T21:31:26.923Z,26.03
2019-03-02T21:34:32.234Z,25.37
2019-03-02T21:37:37.573Z,24.93
2019-03-02T21:40:43.012Z,29.17
2019-03-02T21:43:48.321Z,25.80
2019-03-02T21:46:53.697Z,30.13
2019-03-02T21:49:58.954Z,31.90
2019-03-02T21:53:04.348Z,31.10
2019-03-02T21:56:09.588Z,32.77
2019-03-02T21:59:14.997Z,27.60
2019-03-02T22:02:20.311Z,33.20
2019-03-02T22:05:25.594Z,35.20
2019-03-02T22:08:31.859Z,35.87
2019-03-02T22:11:39.598Z,37.83
2019-03-02T22:14:46.394Z,38.47
2019-03-02T22:17:52.539Z,39.63
2019-03-02T22:20:58.006Z,38.67
2019-03-02T22:24:03.318Z,40.50
2019-03-02T22:27:08.608Z,38.83
2019-03-02T22:30:16.384Z,38.60
2019-03-02T22:33:24.696Z,38.77
2019-03-02T22:36:46.448Z,41.47
2019-03-02T22:40:08.651Z,38.77
2019-03-02T22:43:31.227Z,37.00
2019-03-02T22:46:40.055Z,36.03
2019-03-02T22:50:15.019Z,36.87
2019-03-02T22:53:25.736Z,36.07
2019-03-02T22:56:53.652Z,40.37
2019-03-02T23:00:58.004Z,38.77
2019-03-02T23:04:03.596Z,33.13
2019-03-02T23:07:08.876Z,41.83
2019-03-02T23:10:14.179Z,39.23
2019-03-02T23:13:19.537Z,40.17
2019-03-02T23:16:24.832Z,38.13
2019-03-02T23:19:30.292Z,43.73
2019-03-02T23:22:35.546Z,47.70
2019-03-02T23:25:40.877Z,56.40
2019-03-02T23:28:46.171Z,53.07
2019-03-02T23:31:51.430Z,47.53
2019-03-02T23:34:56.663Z,48.63
2019-03-02T23:38:01.953Z,45.50
2019-03-02T23:41:07.247Z,42.50
2019-03-02T23:44:13.996Z,42.73
2019-03-02T23:47:22.348Z,36.87
2019-03-02T23:50:27.692Z,33.70
2019-03-02T23:53:33.076Z,32.60
2019-03-02T23:56:38.558Z,25.73
2019-03-02T23:59:43.845Z,30.03
